Tiempo atmosférico en la estación meteorológica de Palma Aeropuerto, Illes Balears (8 m.)



Fecha
DESCASC
Temp. máxima en grados centígrados (hora)
DESCASC
Temp. mínima en grados centígrados (hora)
DESCASC
Temp. media en grados centígrados
DESCASC
Racha de viento máxima en m/sg (hora)
DESCASC
Velocidad máxima media en intervalos de 10 minutos(hora)
DESCASC
Precipitaciones diarias en mm
DESCASC
Precipitaciones de 00:00 a 06:00 en mm
DESCASC
Precipitaciones de 06:00 a 12:00 en mm
DESCASC
Precipitaciones de 12:00 a 18:00 en mm
DESCASC
Precipitaciones de 18:00 a 24:00 en mm
DESCASC

Gráficas

Temp. máximas Temp. mínimas Temp. medias Precipitaciones Rachas de viento máximas Velocidades máximas media en intervalos de 10 minutos

Datos horarios

Fecha y hora oficial Temperatura (ºC) Velocidad del viento (km/h) Dirección del viento Racha (km/h) Dirección de racha Precipitación (mm) Presión (hPa) Tendencia (hPa) Humedad (%)
2019-08-22 23:00:00 22.7 4 Nordeste 11 Este 0 1019.1 1 47
2019-08-22 22:00:00 24.6 5 Nordeste 9 Nordeste 0 1019 1.2 41
2019-08-22 21:00:00 26.1 8 Este 24 Este 0 1018.6 0.8 37
2019-08-22 20:00:00 27.9 21 Este 37 Este 0 1018.1 0 33
2019-08-22 19:00:00 29.6 26 Este 37 Nordeste 0 1017.8 -0.3 29
2019-08-22 18:00:00 30.2 29 Este 42 Este 0 1017.8 -0.5 32
2019-08-22 17:00:00 30.9 31 Este 45 Este 0 1018.1 -0.1 30
2019-08-22 16:00:00 31.3 28 Este 45 Este 0 1018.1 -0.5 30
2019-08-22 15:00:00 31.4 29 Este 42 Este 0 1018.3 -0.4 32
2019-08-22 14:00:00 31.2 31 Este 45 Este 0 1018.2 -0.5 32
2019-08-22 13:00:00 30.6 31 Este 42 Este 0 1018.6 -0.1 38
2019-08-22 12:00:00 30.6 22 Este 35 Este 0 1018.7 0 34
2019-08-22 11:00:00 29 8 Sur 13 Sur 0 1018.7 0.4 37
2019-08-22 10:00:00 26.9 4 Sudeste 13 Este 0 1018.7 0.7 47
2019-08-22 09:00:00 23 3 Este 8 Este 0 1018.7 0.9 58
2019-08-22 08:00:00 17.8 8 Noroeste 11 Noroeste 0 1018.3 0.4 78
2019-08-22 07:00:00 17.2 6 Este 9 Este 0 1018 0.1 79
2019-08-22 06:00:00 16.8 3 Este 9 Este 0 1017.8 -0.2 82
2019-08-22 05:00:00 17.7 2 Nordeste 13 Noroeste 0 1017.9 -0.2 80
2019-08-22 04:00:00 17.7 5 Este -- -- 0 1017.9 -0.3 79
2019-08-22 03:00:00 19.4 3 Nordeste 8 Sudeste 0 1018 -0.2 74
2019-08-22 02:00:00 19.7 5 Norte -- -- 0 1018.1 -0.6 73
2019-08-22 01:00:00 20.7 7 Este 11 Este 0 1018.2 -0.2 69
2019-08-22 00:00:00 21.7 6 Nordeste 13 Este 0 1018.2 0.5 65
2019-08-21 23:00:00 22.5 6 Norte 17 Este 0 1018.7 1.3 63
2019-08-21 22:00:00 24.1 12 Este 18 Este 0 1018.4 1.3 58
2019-08-21 21:00:00 25.1 16 Este 22 Este 0 1017.7 0.7 55
2019-08-21 20:00:00 27 13 Este 22 Sudoeste 0 1017.4 0.3 50
2019-08-21 19:00:00 27.8 18 Sudoeste 32 Sudoeste 0 1017.1 -0.3 56
2019-08-21 18:00:00 27.5 24 Sudoeste 35 Sudoeste 0 1017 -1 57
2019-08-21 17:00:00 29.2 28 Sudoeste 35 Sudoeste 0 1017.1 -1.2 51
2019-08-21 16:00:00 30.9 11 Nordeste 28 Este 0 1017.4 -1.3 39
2019-08-21 15:00:00 30.5 17 Este 32 Este 0 1018 -1 39
2019-08-21 14:00:00 29.8 19 Este 35 Este 0 1018.3 -0.9 40
2019-08-21 13:00:00 28.7 25 Este 39 Este 0 1018.7 -0.8 41
2019-08-21 12:00:00 28.5 28 Este 41 Este 0 1019 -0.4 40
2019-08-21 11:00:00 27.2 27 Nordeste 42 Este 0 1019.2 -0.3 44
2019-08-21 10:00:00 26.2 31 Nordeste 41 Este 0 1019.5 0.3 46
2019-08-21 09:00:00 24.6 24 Nordeste 33 Nordeste 0 1019.4 0.5 57
2019-08-21 08:00:00 23.1 11 Nordeste 21 Este 0 1019.5 0.4 62
2019-08-21 07:00:00 22.6 14 Nordeste 21 Nordeste 0 1019.2 0.1 64
2019-08-21 06:00:00 22.3 10 Nordeste 26 Nordeste 0 1018.9 -0.2 68
2019-08-21 05:00:00 22.6 12 Nordeste 30 Nordeste 0 1019.1 -0.1 68
2019-08-21 04:00:00 22.8 18 Nordeste 33 Nordeste 0 1019.1 -0.1 70
2019-08-21 03:00:00 23 17 Nordeste 30 Nordeste 0 1019.1 -0.2 69
2019-08-21 02:00:00 23.5 15 Nordeste 33 Este 0 1019.2 0.4 64
2019-08-21 01:00:00 23.7 19 Nordeste 46 Este 0 1019.2 0.7 64
2019-08-21 00:00:00 23.9 33 Nordeste 58 Nordeste 0 1019.3 1.1 62
2019-08-20 23:00:00 24.4 34 Este 46 Este 0 1018.8 0.7 68
2019-08-20 22:00:00 24.3 28 Este 50 Este 0 1018.5 1.1 69
2019-08-20 21:00:00 24.8 31 Nordeste 50 Nordeste 0 1018.2 1.3 67
2019-08-20 20:00:00 25.2 36 Este 54 Nordeste 0 1018.1 1.4 66
2019-08-20 19:00:00 25.3 39 Nordeste 61 Nordeste 0 1017.4 0.8 67
2019-08-20 18:00:00 26.8 44 Este 61 Este 0 1016.9 1 65
2019-08-20 17:00:00 28.6 42 Este 59 Este 0 1016.7 0.8 60
2019-08-20 16:00:00 29.2 46 Este 58 Este 0 1016.6 0.7 60
2019-08-20 15:00:00 30.9 38 Este 48 Este 0 1015.9 0.3 56
2019-08-20 14:00:00 31.5 29 Este 41 Nordeste 0 1015.9 0.6 54
2019-08-20 13:00:00 31.3 22 Nordeste 35 Este 0 1015.9 0.6 52
2019-08-20 12:00:00 31.5 16 Este 30 Este 0 1015.6 0.4 48
2019-08-20 11:00:00 30.2 18 Este 26 Este 0 1015.3 0.5 54
2019-08-20 10:00:00 28.5 15 Este 30 Este 0 1015.3 1 63
2019-08-20 09:00:00 27.2 14 Este 21 Este 0 1015.2 0.8 73
2019-08-20 08:00:00 23.6 4 Este 9 Este 0 1014.8 0.1 91
2019-08-20 07:00:00 22.6 9 Este 13 Este 0 1014.3 -0.2 95
2019-08-20 06:00:00 22.8 7 Este 11 Este 0 1014.4 -0.3 93
2019-08-20 05:00:00 23.6 7 Este 13 Nordeste 0 1014.7 -0.3 91
2019-08-20 04:00:00 23.6 7 Nordeste -- -- 0 1014.5 -0.8 93
2019-08-20 03:00:00 -- 9 Nordeste 13 Nordeste 0 1014.7 -0.8 --
2019-08-20 02:00:00 23.9 9 Nordeste -- -- 0 1015 -0.3 90
2019-08-20 01:00:00 24.4 8 Nordeste 11 Este 0 1015.3 0.3 86
2019-08-20 00:00:00 25.1 6 Este 13 Este 0 1015.5 1.4 83
2019-08-19 23:00:00 26.6 9 Este 13 Este 0 1015.3 1.5 77
2019-08-19 22:00:00 28.1 9 Sudeste 17 Sur 0 1015 1.4 71
2019-08-19 21:00:00 29.5 13 Sudeste 22 Sur 0 1014.1 0.3 60
2019-08-19 20:00:00 31.4 13 Sudeste 24 Sudeste 0 1013.8 -0.1 52
2019-08-19 19:00:00 32.2 13 Sur 28 Sudoeste 0 1013.6 0 55
2019-08-19 18:00:00 31.7 22 Sudoeste 39 Sudoeste 0 1013.8 -0.1 59
2019-08-19 17:00:00 32.5 27 Sudoeste 39 Sudoeste 0 1013.9 0 58
2019-08-19 16:00:00 35.2 21 Sur 42 Sudoeste 0 1013.6 -0.5 44
2019-08-19 15:00:00 33.4 23 Sudoeste 35 Sudoeste 0 1013.9 -0.3 56
2019-08-19 14:00:00 31.5 23 Oeste 35 Oeste 0 1013.9 0.1 63
2019-08-19 13:00:00 31.8 23 Sudoeste 30 Sudoeste 0 1014.1 0.6 62
2019-08-19 12:00:00 30.9 21 Sudoeste 28 Oeste 0 1014.2 0.7 62
2019-08-19 11:00:00 31.9 8 Sur 17 Este 0 1013.8 0.4 51
2019-08-19 10:00:00 30.3 4 Sudeste 9 Sur 0 1013.5 0.6 56
2019-08-19 09:00:00 26.4 4 Norte 9 Nordeste 0 1013.5 1.1 65
2019-08-19 08:00:00 22.4 8 Norte 13 Noroeste 0 1013.4 1 60
2019-08-19 07:00:00 21.3 9 Nordeste 13 Nordeste 0 1012.9 0.3 74
2019-08-19 06:00:00 21.3 8 Nordeste 11 Norte 0 1012.4 -0.5 72
2019-08-19 05:00:00 21.8 6 Norte 9 Norte 0 1012.4 -0.6 70
2019-08-19 04:00:00 21.4 5 Nordeste 9 Nordeste 0 1012.6 -0.6 76
2019-08-19 03:00:00 22.4 6 Este 9 Norte 0 1012.9 -0.2 74
2019-08-19 02:00:00 23.1 4 Nordeste 8 Este 0 1013 0.2 76
2019-08-19 01:00:00 24.4 5 Norte 11 Norte 0 1013.2 1.4 72
2019-08-19 00:00:00 26.4 5 Nordeste 15 Sur 0 1013.1 1.8 73
2019-08-18 23:00:00 27.5 4 Sudeste 13 Sur 0 1012.8 1.9 59
2019-08-18 22:00:00 29.3 9 Sudeste 15 Sudeste 0 1011.8 1.1 55
2019-08-18 21:00:00 30.8 12 Sur 22 Sur 0 1011.3 0.4 45
2019-08-18 20:00:00 32.9 14 Sur 22 Sur 0 1010.9 -0.1 39
2019-08-18 19:00:00 35.2 15 Sur 32 Sur 0 1010.7 -0.8 36
2019-08-18 18:00:00 35.9 19 Sudoeste 28 Sudoeste 0 1010.9 -0.9 33
2019-08-18 17:00:00 35.8 21 Sudoeste 30 Sudoeste 0 1011 -1.3 33
2019-08-18 16:00:00 35.1 24 Sudoeste 35 Sudoeste 0 1011.5 -1 36
2019-08-18 15:00:00 35 26 Sudoeste 33 Sudoeste 0 1011.8 -0.8 37
2019-08-18 14:00:00 33.9 21 Oeste 28 Oeste 0 1012.3 -0.1 42
2019-08-18 13:00:00 32.4 22 Sudoeste 28 Oeste 0 1012.5 0.2 52
2019-08-18 12:00:00 34.4 14 Sudoeste 22 Sudoeste 0 1012.6 0.2 40
2019-08-18 11:00:00 32.2 7 Nordeste 15 Nordeste 0 1012.4 -0.1 46
2019-08-18 10:00:00 29.4 11 Este 21 Este 0 1012.3 -0.3 57
2019-08-18 09:00:00 26 4 Nordeste 8 Nordeste 0 1012.4 -0.6 75
2019-08-18 08:00:00 22.6 6 Nordeste 9 Nordeste 0 1012.5 -0.6 92
2019-08-18 07:00:00 21.6 5 Este 9 Este 0 1012.6 -1.1 100
2019-08-18 06:00:00 22 6 Este -- -- 0 1013 -1.1 100
2019-08-18 05:00:00 22.3 6 Este 8 Este 0 1013.1 -1.1 93
2019-08-18 04:00:00 23.2 5 Este 11 Norte 0 1013.7 -0.5 90
2019-08-18 03:00:00 23.4 9 Norte 13 Norte 0 1014.1 -0.2 93
2019-08-18 02:00:00 23.6 8 Nordeste -- -- 0 1014.2 0 87
2019-08-18 01:00:00 24 4 Norte 9 Norte 0 1014.2 0.1 83
2019-08-18 00:00:00 25 5 Nordeste 21 Sudeste 0 1014.3 0.9 78
2019-08-17 23:00:00 26.7 10 Este 15 Este 0 1014.2 0.8 76
2019-08-17 22:00:00 27.9 9 Sur 18 Sudeste 0 1014.1 0.5 67
2019-08-17 21:00:00 29.3 13 Sudeste 17 Sudeste 0 1013.4 -0.8 59
2019-08-17 20:00:00 31 13 Sur 21 Sudeste 0 1013.4 -1.2 41
2019-08-17 19:00:00 30.9 17 Sudoeste 33 Sudoeste 0 1013.6 -1.3 59
2019-08-17 18:00:00 31.3 22 Sudoeste 32 Sudoeste 0 1014.2 -1.1 58
2019-08-17 17:00:00 31.3 24 Sudoeste 35 Sudoeste 0 1014.6 -0.9 58
2019-08-17 16:00:00 31.5 27 Sudoeste 39 Sudoeste 0 1014.9 -1 57
2019-08-17 15:00:00 31.9 30 Sudoeste 39 Sudoeste 0 1015.3 -0.9 52
2019-08-17 14:00:00 31.8 28 Sudoeste 35 Sudoeste 0 1015.5 -0.8 55
2019-08-17 13:00:00 30.8 23 Sudoeste 30 Sudoeste 0 1015.9 -0.4 58
2019-08-17 12:00:00 31.9 19 Sudoeste 26 Sudoeste 0 1016.2 -0.2 50
2019-08-17 11:00:00 30.6 6 Este 15 Este 0 1016.3 0.2 51
2019-08-17 10:00:00 28 7 Este 15 Este 0 1016.3 0.3 65
2019-08-17 09:00:00 24.9 3 Norte 9 Nordeste 0 1016.4 0.7 80
2019-08-17 08:00:00 21.7 4 Nordeste 9 Norte 0 1016.1 0.1 82
2019-08-17 07:00:00 20.3 9 Norte 11 Norte 0 1016 -0.3 85
2019-08-17 06:00:00 20.5 4 Norte -- -- 0 1015.7 -0.8 95
2019-08-17 05:00:00 20.9 3 Nordeste -- -- 0 1016 -0.6 91
2019-08-17 04:00:00 21 5 Nordeste 8 Nordeste 0 1016.3 -0.4 97
2019-08-17 03:00:00 21.6 6 Nordeste -- -- 0 1016.5 -0.2 88
2019-08-17 02:00:00 22.5 3 Nordeste -- -- 0 1016.6 -0.2 90
2019-08-17 01:00:00 23 3 Este 8 Norte 0 1016.7 0.1 86
2019-08-17 00:00:00 25 4 Este 11 Sur 0 1016.7 0.6 78
2019-08-16 23:00:00 26 8 Sur 15 Sur 0 1016.8 1 77
2019-08-16 22:00:00 26.3 9 Sudoeste 24 Sudoeste 0 1016.6 0.8 77
2019-08-16 21:00:00 26.6 16 Sudoeste 24 Sudoeste 0 1016.1 0 76
2019-08-16 20:00:00 27.9 17 Sudoeste 28 Sudoeste 0 1015.8 -0.8 63
2019-08-16 19:00:00 29.1 21 Sudoeste 30 Sudoeste 0 1015.8 -1.1 55
2019-08-16 18:00:00 30.2 21 Sudoeste 33 Sudoeste 0 1016.1 -1.1 45
2019-08-16 17:00:00 30.2 24 Sudoeste 35 Sudoeste 0 1016.6 -1.1 52
2019-08-16 16:00:00 30.4 24 Sudoeste 35 Sudoeste 0 1016.9 -1.3 49
2019-08-16 15:00:00 30.6 24 Sudoeste 33 Sudoeste 0 1017.2 -1.4 46
2019-08-16 14:00:00 30.8 24 Sudoeste 35 Sudoeste 0 1017.7 -1.1 46
2019-08-16 13:00:00 30 21 Sudoeste 30 Sudoeste 0 1018.2 -0.5 57
2019-08-16 12:00:00 30.2 19 Sudoeste 28 Sudoeste 0 1018.6 0.1 51
2019-08-16 11:00:00 28.9 6 Este 17 Este 0 1018.8 0.5 55
2019-08-16 10:00:00 27.6 7 Este 17 Este 0 1018.7 0.8 60
2019-08-16 09:00:00 25.5 10 Nordeste 13 Nordeste 0 1018.5 0.7 72
2019-08-16 08:00:00 22.2 4 Norte 8 Norte 0 1018.3 0.3 86
2019-08-16 07:00:00 20.6 3 Nordeste 8 Nordeste 0 1017.9 -0.2 92
2019-08-16 06:00:00 20.6 4 Nordeste -- -- 0 1017.8 -0.5 92
2019-08-16 05:00:00 20.9 4 Este 8 Este 0 1018 -0.7 89
2019-08-16 04:00:00 21.2 4 Norte -- -- 0 1018.1 -0.7 87
2019-08-16 03:00:00 22 0 Calma 8 Nordeste 0 1018.3 -0.3 85
2019-08-16 02:00:00 21.8 4 Nordeste 13 Nordeste 0 1018.7 0.3 85
2019-08-16 01:00:00 22.4 8 Este 11 Este 0 1018.8 0.6 81
2019-08-16 00:00:00 23.1 5 Este 9 Sudeste 0 1018.6 1.1 78
2019-08-15 23:00:00 25.8 4 Sudeste 15 Sur 0 1018.4 1 71
2019-08-15 22:00:00 26.2 7 Oeste 21 Sudoeste 0 1018.2 1 69
2019-08-15 21:00:00 26.5 15 Sudoeste 21 Sudoeste 0 1017.5 0 68
2019-08-15 20:00:00 27.7 14 Sudoeste 22 Sudoeste 0 1017.4 -0.2 61
2019-08-15 19:00:00 28.5 16 Sudoeste 28 Sudoeste 0 1017.2 -0.8 61
2019-08-15 18:00:00 28.7 20 Sudoeste 37 Sudoeste 0 1017.5 -0.7 61
2019-08-15 17:00:00 29 23 Sudoeste 37 Sudoeste 0 1017.6 -0.8 61
2019-08-15 16:00:00 29.3 27 Sudoeste 37 Sudoeste 0 1018 -0.7 59
2019-08-15 15:00:00 29.2 24 Sudoeste 35 Sudoeste 0 1018.2 -0.6 61
2019-08-15 14:00:00 29.3 26 Sudoeste 33 Sudoeste 0 1018.4 -0.3 59
2019-08-15 13:00:00 29.2 23 Sudoeste 35 Sudoeste 0 1018.7 0 62
2019-08-15 12:00:00 28.8 19 Sudoeste 26 Sudoeste 0 1018.8 0.2 64
2019-08-15 11:00:00 28.2 13 Sudoeste 21 Sudoeste 0 1018.7 0.3 64
2019-08-15 10:00:00 27.6 4 Sur 13 Este 0 1018.7 0.7 67
2019-08-15 09:00:00 24.4 6 Este 11 Nordeste 0 1018.6 0.9 76
2019-08-15 08:00:00 20.7 4 Norte -- -- 0 1018.4 0.7 85
2019-08-15 07:00:00 19.1 5 Norte -- -- 0 1018 0.1 98
2019-08-15 06:00:00 20 4 Norte 8 Nordeste 0 1017.7 -0.2 92
2019-08-15 05:00:00 19.7 4 Noroeste 8 Norte 0 1017.7 -0.4 96
2019-08-15 04:00:00 20.2 3 Nordeste 8 Nordeste 0 1017.9 -0.2 92
2019-08-15 03:00:00 20.9 4 Este 9 Norte 0 1017.9 -0.2 85
2019-08-15 02:00:00 21.5 6 Norte 8 Norte 0 1018.1 0 87
2019-08-15 01:00:00 22 5 Norte 11 Noroeste 0 1018.1 0.3 82
2019-08-15 00:00:00 23.2 5 Nordeste 11 Oeste 0 1018.1 0.8 81
2019-08-14 23:00:00 25.1 9 Oeste 18 Sudoeste 0 1018.1 1.1 74
2019-08-14 22:00:00 25.8 13 Oeste 26 Oeste 0 1017.8 0.7 70
2019-08-14 21:00:00 26.1 23 Sudoeste 35 Sudoeste 0 1017.3 0 68
2019-08-14 20:00:00 27 27 Sudoeste 35 Sudoeste 0 1017 -0.4 65
2019-08-14 19:00:00 27.6 28 Sudoeste 39 Sudoeste 0 1017.1 -0.5 62
2019-08-14 18:00:00 28.4 32 Sudoeste 42 Sudoeste 0 1017.3 -0.6 58
2019-08-14 17:00:00 28.9 35 Sudoeste 45 Sudoeste 0 1017.4 -0.8 56
2019-08-14 16:00:00 28.9 35 Sudoeste 46 Sudoeste 0 1017.6 -1 55
2019-08-14 15:00:00 29.3 37 Sudoeste 48 Sudoeste 0 1017.9 -0.9 55
2019-08-14 14:00:00 29.2 35 Sudoeste 45 Sudoeste 0 1018.2 -0.5 56
2019-08-14 13:00:00 28.8 33 Sudoeste 42 Sudoeste 0 1018.6 -0.2 58
2019-08-14 12:00:00 28.5 28 Sudoeste 35 Sudoeste 0 1018.8 -0.1 58
2019-08-14 11:00:00 27.8 19 Sudoeste 28 Sudoeste 0 1018.7 0.2 60
2019-08-14 10:00:00 26.5 14 Sudoeste 21 Sudoeste 0 1018.8 0.3 63
2019-08-14 09:00:00 24.6 0 Calma 8 Norte 0 1018.9 0.4 66
2019-08-14 08:00:00 20.1 3 Nordeste 5 Norte 0 1018.5 -0.1 80
2019-08-14 07:00:00 18.4 5 Nordeste 8 Nordeste 0 1018.5 -0.2 88
2019-08-14 06:00:00 18.6 4 Norte -- -- 0 1018.5 0.1 85
2019-08-14 05:00:00 18.9 4 Nordeste 9 Este 0 1018.6 0 83
2019-08-14 04:00:00 19.6 5 Norte 9 Noroeste 0 1018.7 0.2 80
2019-08-14 03:00:00 20.4 6 Este 9 Este 0 1018.4 0.4 76
2019-08-14 02:00:00 21.2 6 Nordeste 9 Norte 0 1018.6 0.6 74
2019-08-14 01:00:00 22.5 3 Este 15 Sudeste 0 1018.5 0.7 69
2019-08-14 00:00:00 23.9 9 Sur 15 Sudeste 0 1018 0.6 63
2019-08-13 23:00:00 24.8 8 Sudoeste 17 Sudoeste 0 1018 1.1 65
2019-08-13 22:00:00 25.4 12 Sudoeste 21 Sudoeste 0 1017.8 1 63
2019-08-13 21:00:00 26 16 Sudoeste 28 Sudoeste 0 1017.4 0.9 60
2019-08-13 20:00:00 26.8 18 Sudoeste 35 Sudoeste 0 1016.9 0.5 57
2019-08-13 19:00:00 27.8 25 Sudoeste 37 Sudoeste 0 1016.8 0.5 53
2019-08-13 18:00:00 29.3 26 Sudoeste 37 Oeste 0 1016.5 -0.4 47
2019-08-13 17:00:00 31 26 Sudoeste 32 Sudoeste 0 1016.4 -1.2 38
2019-08-13 16:00:00 30.4 8 Nordeste 24 Este 0 1016.3 -1.7 39
2019-08-13 15:00:00 29.5 14 Nordeste 28 Nordeste 0 1016.9 -1.3 41
2019-08-13 14:00:00 28.4 16 Nordeste 35 Este 0 1017.6 -0.6 44
2019-08-13 13:00:00 27.4 25 Este 39 Este 0 1018 0.2 46
2019-08-13 12:00:00 26.7 31 Este 42 Nordeste 0 1018.2 0.7 48
2019-08-13 11:00:00 26.3 28 Nordeste 48 Este 0 1018.2 1.2 50
2019-08-13 10:00:00 25.9 38 Este 54 Este 0 1017.8 0.9 48
2019-08-13 09:00:00 24.4 27 Nordeste 39 Nordeste 0 1017.5 0.3 54
2019-08-13 08:00:00 23.2 19 Nordeste 33 Nordeste 0 1017 -0.4 62
2019-08-13 07:00:00 22.8 13 Nordeste 26 Nordeste 0 1016.9 -0.7 62
2019-08-13 06:00:00 23.1 17 Nordeste 32 Nordeste 0 1017.2 -0.2 59
2019-08-13 05:00:00 23.3 19 Nordeste 32 Nordeste 0 1017.4 0.1 59
2019-08-13 04:00:00 23.6 18 Nordeste 30 Nordeste 0 1017.6 0.4 59
2019-08-13 03:00:00 23.9 16 Nordeste 32 Nordeste 0 1017.4 0.7 62
2019-08-13 02:00:00 24.3 16 Nordeste 28 Este 0 1017.3 1 64
2019-08-13 01:00:00 24.5 12 Nordeste 26 Este 0 1017.2 1.6 62
2019-08-13 00:00:00 24.8 18 Nordeste 39 Nordeste 0 1016.7 2.2 61
2019-08-12 23:00:00 24.9 25 Nordeste 35 Este 0 1016.3 2.3 62
2019-08-12 22:00:00 25.1 22 Este 42 Este 0 1015.6 2.1 63
2019-08-12 21:00:00 25.5 33 Este 46 Este 0 1014.5 1.1 64
2019-08-12 20:00:00 26.4 32 Nordeste 46 Nordeste 0 1014 0.8 62
2019-08-12 19:00:00 27.3 29 Nordeste 45 Este 0 1013.5 0.1 61
2019-08-12 18:00:00 28.7 35 Este 45 Este 0 1013.4 -0.2 58
2019-08-12 17:00:00 29.3 32 Este 46 Nordeste 0 1013.2 -0.2 58
2019-08-12 16:00:00 28.8 36 Este 48 Nordeste 0 1013.4 0.1 60
2019-08-12 15:00:00 29.4 37 Este 50 Nordeste 0 1013.6 0.4 60
2019-08-12 14:00:00 31 29 Nordeste 42 Este 0 1013.4 0.3 55
2019-08-12 13:00:00 30.7 28 Este 46 Este 0 1013.3 0.6 57
2019-08-12 12:00:00 30.1 27 Nordeste 39 Este 0 1013.2 0.5 58
2019-08-12 11:00:00 28.6 30 Este 39 Este 0 1013.1 1.3 65
2019-08-12 10:00:00 26.5 29 Este 39 Nordeste 0 1012.7 1.6 73
2019-08-12 09:00:00 26.6 26 Nordeste 39 Nordeste 0 1012.7 2 76
2019-08-12 08:00:00 26.2 24 Este 37 Este 0 1011.8 1.3 81
2019-08-12 07:00:00 26.1 20 Este 30 Este 0 1011.1 -0.1 86
2019-08-12 06:00:00 25.4 6 Este 11 Este 0 1010.7 0.2 90
2019-08-12 05:00:00 26.4 6 Este 9 Este 0 1010.5 -2.6 86
2019-08-12 04:00:00 27.1 6 Nordeste 21 Este 0 1011.2 -1.9 87
2019-08-12 03:00:00 27.3 11 Este 22 Este 0 1010.5 -1.9 85
2019-08-12 02:00:00 28 6 Oeste 15 Sur 0 1013.1 0.9 82
2019-08-12 01:00:00 27.8 7 Sur 11 Sudoeste 0 1013.1 1.7 78
2019-08-12 00:00:00 27.5 5 Este 13 Este 0 1012.4 1.3 78
2019-08-11 23:00:00 27.1 3 Nordeste 11 Sur 0 1012.2 1.3 85
2019-08-11 22:00:00 28 7 Sur 13 Sudoeste 0 1011.4 0.6 80
2019-08-11 21:00:00 28.3 7 Sur 18 Sudoeste 0 1011.1 0.2 79
2019-08-11 20:00:00 28.9 13 Sudoeste 22 Sur 0 1010.9 -0.3 77
2019-08-11 19:00:00 30.1 15 Sudoeste 28 Sudoeste 0 1010.8 -0.6 71
2019-08-11 18:00:00 30.8 19 Sudoeste 32 Sur 0 1010.9 -1.1 66
2019-08-11 17:00:00 31.5 21 Sudoeste 32 Sur 0 1011.2 -1 65
2019-08-11 16:00:00 31.4 18 Sudoeste 33 Sudoeste 0 1011.4 -1.2 64
2019-08-11 15:00:00 30.8 27 Sudoeste 39 Sudoeste 0 1012 -0.6 68
2019-08-11 14:00:00 30.8 19 Sudoeste 30 Sudoeste 0 1012.2 -0.4 68
2019-08-11 13:00:00 30.4 19 Sudoeste 33 Sudoeste 0 1012.6 0 70
2019-08-11 12:00:00 30.7 20 Sudoeste 30 Sudoeste 0 1012.6 -0.3 69
2019-08-11 11:00:00 30.3 5 Sur 13 Sudeste 0 1012.6 -0.3 67
2019-08-11 10:00:00 29.2 6 Este 17 Nordeste 0 1012.6 -0.2 73
2019-08-11 09:00:00 27.4 10 Nordeste 13 Nordeste 0 1012.9 -0.2 82
2019-08-11 08:00:00 25.2 8 Este 11 Nordeste 0 1012.9 -0.4 100
2019-08-11 07:00:00 24.3 5 Este 11 Este 0 1012.8 -0.3 100
2019-08-11 06:00:00 24.8 4 Nordeste 13 Este 0 1013.1 -0.7 100
2019-08-11 05:00:00 25.5 8 Este 13 Este 0 1013.3 -0.8 100
2019-08-11 04:00:00 24.5 6 Este 9 Este 0 1013.1 -1 100
2019-08-11 03:00:00 25.1 7 Norte 11 Nordeste 0 1013.8 -0.6 100
2019-08-11 02:00:00 26.1 9 Este 17 Este 0 1014.1 -0.4 98
2019-08-11 01:00:00 26.5 11 Este 17 Este 0 1014.1 -0.3 91
2019-08-11 00:00:00 26.9 11 Este 15 Este 0 1014.4 0.5 86
2019-08-10 23:00:00 27.8 9 Este 17 Este 0 1014.5 0.8 80
2019-08-10 22:00:00 28.1 3 Noroeste 8 Nordeste 0 1014.4 0.5 84
2019-08-10 21:00:00 28.9 5 Oeste 11 Oeste 0 1013.9 -0.2 80
2019-08-10 20:00:00 30 9 Oeste 17 Sudoeste 0 1013.7 -0.2 75
2019-08-10 19:00:00 30.6 12 Sudoeste 30 Sudoeste 0 1013.9 -0.2 72
2019-08-10 18:00:00 30.8 22 Sudoeste 32 Sudoeste 0 1014.1 -0.4 72
2019-08-10 17:00:00 31.8 21 Sudoeste 28 Sudoeste 0 1013.9 -0.9 66
2019-08-10 16:00:00 31.7 19 Sudoeste 30 Sudoeste 0 1014.1 -0.8 67
2019-08-10 15:00:00 31.6 21 Sudoeste 33 Sudoeste 0 1014.5 -0.5 68
2019-08-10 14:00:00 32.7 23 Sudoeste 32 Sudoeste 0 1014.8 0.2 62
2019-08-10 13:00:00 32 16 Sudoeste 28 Sudoeste 0 1014.9 0.4 65
2019-08-10 12:00:00 31.5 19 Sudoeste 30 Sudoeste 0 1015 0.8 68
2019-08-10 11:00:00 32.7 10 Nordeste 21 Este 0 1014.6 0.7 55
2019-08-10 10:00:00 29.6 9 Este 17 Este 0 1014.5 1.1 70
2019-08-10 09:00:00 26.9 11 Este 17 Este 0 1014.2 1.2 87
2019-08-10 08:00:00 23.6 9 Este 13 Este 0 1013.9 0.8 100
2019-08-10 07:00:00 22.5 3 Nordeste 5 Nordeste 0 1013.4 0.5 100
2019-08-10 06:00:00 23 4 Norte 8 Norte 0 1013 0.1 100
2019-08-10 05:00:00 23.8 5 Norte 8 Norte 0 1013.1 0.1 100
2019-08-10 04:00:00 24.2 4 Nordeste 5 Norte 0 1012.9 -0.1 100
2019-08-10 03:00:00 23.9 4 Nordeste 5 Nordeste 0 1012.9 -0.1 100
2019-08-10 02:00:00 24.1 4 Este 8 Este 0 1013 0 100
2019-08-10 01:00:00 24.4 3 Este 8 Este 0 1013 0.4 100
2019-08-10 00:00:00 25.7 4 Oeste 11 Oeste 0 1013 1 99
2019-08-09 23:00:00 26.4 9 Oeste 18 Sudoeste 0 1013 1.6 97
2019-08-09 22:00:00 27.3 9 Sudoeste 21 Sudoeste 0 1012.6 0.9 88
2019-08-09 21:00:00 27.7 11 Sudoeste 17 Sudoeste 0 1012 0.1 84
2019-08-09 20:00:00 29 13 Sur 28 Sudoeste 0 1011.4 -0.8 76
2019-08-09 19:00:00 29.9 20 Sur 30 Sudoeste 0 1011.7 -1 72
2019-08-09 18:00:00 30.2 21 Sudoeste 35 Sudoeste 0 1011.9 -1.1 71
2019-08-09 17:00:00 30.3 22 Sudoeste 32 Sudoeste 0 1012.2 -1.1 69
2019-08-09 16:00:00 30.7 22 Sudoeste 33 Sudoeste 0 1012.7 -0.5 68
2019-08-09 15:00:00 30.9 24 Sudoeste 32 Sudoeste 0 1013 -0.1 67
2019-08-09 14:00:00 30.2 21 Sudoeste 33 Sudoeste 0 1013.3 0.1 68
2019-08-09 13:00:00 30.4 26 Sudoeste 33 Sudoeste 0 1013.2 0.5 68
2019-08-09 12:00:00 30.2 22 Sudoeste 30 Sudoeste 0 1013.1 0.5 68
2019-08-09 11:00:00 29.5 18 Sudoeste 26 Sudoeste 0 1013.2 0.3 72
2019-08-09 10:00:00 29.2 6 Sudoeste 13 Sudoeste 0 1012.7 0.1 72
2019-08-09 09:00:00 26.5 5 Este 8 Este 0 1012.6 0.2 86
2019-08-09 08:00:00 22.3 4 Nordeste -- -- 0 1012.9 0.3 100
2019-08-09 07:00:00 21.1 4 Noroeste 8 Noroeste 0 1012.6 -0.1 100
2019-08-09 06:00:00 22.2 3 Norte -- -- 0 1012.4 -0.3 100
2019-08-09 05:00:00 22.7 6 Norte -- -- 0 1012.6 -0.1 100
2019-08-09 04:00:00 22.6 5 Nordeste 8 Nordeste 0 1012.7 0.1 100
2019-08-09 03:00:00 22.4 8 Nordeste 9 Nordeste 0 1012.7 0.2 94
2019-08-09 02:00:00 23.5 5 Este 5 Este 0 1012.7 0.5 92
2019-08-09 01:00:00 24.2 4 Este 13 Sudeste 0 1012.6 0.8 90
2019-08-09 00:00:00 25.5 6 Sudeste 13 Sur 0 1012.5 1.2 85
2019-08-08 23:00:00 26.2 3 Nordeste 11 Oeste 0 1012.2 1.3 88
2019-08-08 22:00:00 26.9 5 Noroeste 15 Sudoeste 0 1011.8 0.7 83
2019-08-08 21:00:00 28.1 12 Sudoeste 21 Sudoeste 0 1011.3 -0.1 75
2019-08-08 20:00:00 29.5 13 Sudoeste 24 Sudoeste 0 1010.9 -0.7 68
2019-08-08 19:00:00 30 18 Sudoeste 28 Sudoeste 0 1011.1 -0.8 71
2019-08-08 18:00:00 30.2 19 Sudoeste 30 Sudoeste 0 1011.4 -0.9 72
2019-08-08 17:00:00 30.6 20 Sudoeste 32 Sudoeste 0 1011.6 -0.7 69
2019-08-08 16:00:00 31 23 Sudoeste 30 Sudoeste 0 1011.9 -0.6 66
2019-08-08 15:00:00 30.8 25 Sudoeste 37 Sudoeste 0 1012.3 -0.2 67
2019-08-08 14:00:00 30.6 26 Sudoeste 33 Sudoeste 0 1012.3 0.1 67
2019-08-08 13:00:00 31 23 Sudoeste 30 Sudoeste 0 1012.5 0.3 64
2019-08-08 12:00:00 30.3 16 Sudoeste 22 Sudoeste 0 1012.5 0.2 67
2019-08-08 11:00:00 30.9 12 Sudoeste 18 Sudoeste 0 1012.2 0.7 65
2019-08-08 10:00:00 28.5 7 Oeste 15 Sudoeste 0 1012.2 1.3 74
2019-08-08 09:00:00 27.8 6 Sudeste 13 Sudoeste 0 1012.3 1.6 78
2019-08-08 08:00:00 25.6 6 Nordeste 9 Nordeste 0 1011.5 1 89
2019-08-08 07:00:00 24.8 6 Este 9 Este 0 1010.9 0.1 93
2019-08-08 06:00:00 24.7 5 Nordeste 8 Norte 0 1010.7 -0.6 92
2019-08-08 05:00:00 25.7 2 Noroeste 13 Nordeste 0 1010.5 -1.3 88
2019-08-08 04:00:00 25.9 2 Norte 9 Este 0 1010.8 -0.8 89
2019-08-08 03:00:00 26 4 Nordeste 8 Norte 0 1011.3 -0.3 89
2019-08-08 02:00:00 25.2 3 Oeste 8 Nordeste 0 1011.8 0.6 96
2019-08-08 01:00:00 25.6 7 Norte 11 Este 0 1011.6 1 90
2019-08-08 00:00:00 26.3 8 Este 21 Nordeste 0 1011.6 1.9 85
2019-08-07 23:00:00 27.3 17 Este 22 Este 0 1011.2 1.6 80
2019-08-07 22:00:00 27.2 7 Nordeste 15 Este 0 1010.6 1.1 83
2019-08-07 21:00:00 28.3 5 Sudeste 15 Sur 0 1009.7 0 79
2019-08-07 20:00:00 29.3 8 Sur 21 Sudoeste 0 1009.6 0.1 74
2019-08-07 19:00:00 29 17 Sudoeste 30 Sudoeste 0 1009.5 -0.3 75
2019-08-07 18:00:00 30.6 24 Sudoeste 33 Sur 0 1009.7 -0.4 66
2019-08-07 17:00:00 30.9 21 Sudoeste 32 Sudoeste 0 1009.5 -0.8 66
2019-08-07 16:00:00 30.3 24 Sudoeste 32 Sudoeste 0 1009.8 -0.6 68
2019-08-07 15:00:00 30.6 22 Sudoeste 32 Sudoeste 0 1010.1 -0.3 66
2019-08-07 14:00:00 30.3 22 Sudoeste 33 Sudoeste 0 1010.3 0.2 65
2019-08-07 13:00:00 30.6 19 Sudoeste 28 Sudoeste 0 1010.4 0.5 66
2019-08-07 12:00:00 30.1 17 Sur 28 Sudoeste 0 1010.4 1.1 68
2019-08-07 11:00:00 28.8 15 Sur 30 Sudoeste 0 1010.1 1.4 74
2019-08-07 10:00:00 27.8 15 Sudoeste 22 Sudoeste 0 1009.9 1.4 77
2019-08-07 09:00:00 26.9 6 Noroeste 11 Norte 0 1009.3 0.7 81
2019-08-07 08:00:00 23.8 3 Este 8 Norte 0 1008.7 -0.4 100
2019-08-07 07:00:00 22.5 4 Norte 9 Este 0 1008.5 -1.1 100
2019-08-07 06:00:00 22.8 6 Nordeste 9 Nordeste 0 1008.6 -1.2 100
2019-08-07 05:00:00 23.5 6 Este 9 Sur 0 1009.1 -1.4 95
2019-08-07 04:00:00 24.1 3 Sur 9 Norte 0 1009.6 -1 100
2019-08-07 03:00:00 24.5 5 Nordeste -- -- 0 1009.8 -0.9 99
2019-08-07 02:00:00 24.9 3 Sudeste 8 Nordeste 0 1010.5 0.2 92
2019-08-07 01:00:00 25.2 5 Este 9 Sur 0 1010.6 1 86
2019-08-07 00:00:00 25 3 Este 9 Nordeste 0 1010.7 1.5 87
2019-08-06 23:00:00 26.2 7 Oeste 9 Oeste 0 1010.3 0.9 89
2019-08-06 22:00:00 27.2 5 Sur 11 Sur 0 1009.6 0.1 80
2019-08-06 21:00:00 27.6 6 Sudeste 18 Sudoeste 0 1009.2 -0.5 81
2019-08-06 20:00:00 28.7 13 Sudoeste 32 Sudoeste 0 1009.4 -0.9 77
2019-08-06 19:00:00 29.2 22 Sudoeste 32 Sudoeste 0 1009.5 -1.5 75
2019-08-06 18:00:00 30.1 18 Sur 32 Sudoeste 0 1009.7 -1.6 69
2019-08-06 17:00:00 30.7 27 Sudoeste 65 Sudoeste 0 1010.3 -1.5 67
2019-08-06 16:00:00 31.1 31 Sudoeste 39 Sudoeste 0 1011 -1.2 65
2019-08-06 15:00:00 31.2 26 Sudoeste 37 Sudoeste 0 1011.3 -1.1 64
2019-08-06 14:00:00 30.6 27 Sudoeste 35 Sudoeste 0 1011.8 -0.3 64
2019-08-06 13:00:00 29.9 24 Sudoeste 33 Sudoeste 0 1012.2 0.1 70
2019-08-06 12:00:00 30 23 Sudoeste 32 Sudoeste 0 1012.4 -0.1 66
2019-08-06 11:00:00 30.4 4 Norte 11 Oeste 0 1012.1 -0.2 57
2019-08-06 10:00:00 28.3 4 Nordeste 15 Nordeste 0 1012.1 0.3 68
2019-08-06 09:00:00 25.3 11 Nordeste 17 Nordeste 0 1012.5 0.7 84
2019-08-06 08:00:00 23.5 8 Nordeste 13 Nordeste 0 1012.3 0.6 91
2019-08-06 07:00:00 22.8 6 Nordeste 11 Nordeste 0 1011.8 -0.7 95
2019-08-06 06:00:00 22.5 6 Nordeste 9 Este 0 1011.8 -1 91
2019-08-06 05:00:00 22.4 2 Este 13 Norte 0 1011.7 -1.6 86
2019-08-06 04:00:00 22.1 2 Nordeste 9 Norte 0 1012.5 -0.7 80
2019-08-06 03:00:00 22.2 8 Norte 9 Norte 0 1012.8 0 81
2019-08-06 02:00:00 22.3 6 Nordeste -- -- 0 1013.3 0.9 77
2019-08-06 01:00:00 23.4 4 Este 9 Este 0 1013.2 1 77
2019-08-06 00:00:00 24.4 6 Este 9 Este 0 1012.8 1 78
2019-08-05 23:00:00 24.9 4 Este 8 Nordeste 0 1012.4 0.7 82
2019-08-05 22:00:00 26.3 5 Norte 13 Noroeste 0 1012.2 0.3 84
2019-08-05 21:00:00 27.6 6 Noroeste 17 Oeste 0 1011.8 -0.5 75
2019-08-05 20:00:00 29.1 14 Oeste 26 Oeste 0 1011.7 -1 67
2019-08-05 19:00:00 30.2 15 Oeste 35 Sudoeste 0 1011.9 -1 58
2019-08-05 18:00:00 30.1 27 Sudoeste 39 Sudoeste 0 1012.3 -0.9 60
2019-08-05 17:00:00 30.3 30 Sudoeste 42 Sudoeste 0 1012.7 -0.9 61
2019-08-05 16:00:00 30.3 26 Sudoeste 37 Sudoeste 0 1012.9 -1.2 64
2019-08-05 15:00:00 30.9 27 Sudoeste 35 Sudoeste 0 1013.2 -1.2 60
2019-08-05 14:00:00 31.5 19 Sudoeste 26 Oeste 0 1013.6 -0.5 54
2019-08-05 13:00:00 30.8 20 Sudoeste 28 Sudoeste 0 1014.1 -0.1 57
2019-08-05 12:00:00 31.5 20 Sudoeste 28 Sudoeste 0 1014.4 0.1 49
2019-08-05 11:00:00 31.9 6 Sudeste 15 Sudeste 0 1014.1 -0.1 43
2019-08-05 10:00:00 29.8 4 Este 11 Nordeste 0 1014.2 0.4 48
2019-08-05 09:00:00 26.5 4 Norte 11 Nordeste 0 1014.3 0.8 65
2019-08-05 08:00:00 22.7 5 Nordeste 9 Nordeste 0 1014.2 0.2 71
2019-08-05 07:00:00 20.1 4 Norte 8 Nordeste 0 1013.8 -0.4 78
2019-08-05 06:00:00 19.9 6 Este 9 Noroeste 0 1013.5 -1 77
2019-08-05 05:00:00 21.2 8 Norte 11 Norte 0 1014 -0.6 73
2019-08-05 04:00:00 21.1 5 Este 9 Este 0 1014.2 -0.4 74
2019-08-05 03:00:00 22.4 3 Sudeste 8 Norte 0 1014.5 0.1 70
2019-08-05 02:00:00 23.1 5 Este 11 Nordeste 0 1014.6 0.4 68
2019-08-05 01:00:00 23.3 7 Nordeste 9 Norte 0 1014.6 1.2 68
2019-08-05 00:00:00 25.7 5 Este 17 Sur 0 1014.4 1.5 61
2019-08-04 23:00:00 26 5 Noroeste 11 Noroeste 0 1014.2 1.8 71
2019-08-04 22:00:00 26.8 8 Norte 9 Norte 0 1013.4 0.9 65
2019-08-04 21:00:00 28.8 5 Norte 21 Oeste 0 1012.9 -0.1 57
2019-08-04 20:00:00 30 16 Oeste 26 Oeste 0 1012.4 -0.8 57
2019-08-04 19:00:00 30.7 22 Oeste 30 Oeste 0 1012.5 -1.2 48
2019-08-04 18:00:00 31.1 22 Sudoeste 30 Oeste 0 1013 -1 51
2019-08-04 17:00:00 31.9 23 Sudoeste 32 Sudoeste 0 1013.2 -0.8 43
2019-08-04 16:00:00 33 26 Sudoeste 33 Sudoeste 0 1013.7 -0.5 35
2019-08-04 15:00:00 33.7 25 Sudoeste 41 Sudoeste 0 1014 -0.4 35
2019-08-04 14:00:00 33.3 30 Sudoeste 37 Sudoeste 0 1014 -0.2 33
2019-08-04 13:00:00 32 23 Sudoeste 33 Sudoeste 0 1014.2 0.2 38
2019-08-04 12:00:00 31.9 20 Sudoeste 28 Sudoeste 0 1014.4 0.4 29
2019-08-04 11:00:00 33 8 Sudoeste 17 Este 0 1014.2 -- 27
2019-08-04 10:00:00 30.3 12 Este 17 Este 0 1014 -- 35
2019-08-04 09:00:00 27 4 Norte -- -- -- 1014 1.3 46
2019-08-04 08:00:00 -- -- -- -- -- -- -- -- --
2019-08-04 07:00:00 -- -- -- -- -- -- -- -- --
2019-08-04 06:00:00 21 9 Norte 13 Norte 0 1012.7 -1.2 62
2019-08-04 05:00:00 20.2 6 Nordeste 8 Nordeste 0 1012.9 -0.9 73
2019-08-04 04:00:00 20.6 7 Nordeste 11 Nordeste 0 1013.6 -0.5 73
2019-08-04 03:00:00 21.1 6 Este 9 Nordeste 0 1013.9 0.1 72
2019-08-04 02:00:00 21.7 5 Nordeste 8 Norte 0 1013.8 0.3 71
2019-08-04 01:00:00 23.1 4 Nordeste 9 Nordeste 0 1014.1 1.1 66
2019-08-04 00:00:00 24.2 6 Nordeste 9 Nordeste 0 1013.8 1.3 64
2019-08-03 23:00:00 25.1 5 Este 11 Oeste 0 1013.5 0.9 66
2019-08-03 22:00:00 26.6 8 Noroeste 17 Oeste 0 1013 0.4 67
2019-08-03 21:00:00 27.6 12 Oeste 22 Oeste 0 1012.5 -0.4 61
2019-08-03 20:00:00 29 16 Oeste 32 Sudoeste 0 1012.6 -0.9 55
2019-08-03 19:00:00 29.6 26 Sudoeste 35 Sudoeste 0 1012.6 -1.3 55
2019-08-03 18:00:00 30 23 Sudoeste 33 Sudoeste 0 1012.9 -1.4 56
2019-08-03 17:00:00 30.7 24 Sudoeste 37 Sudoeste 0 1013.5 -1 52
2019-08-03 16:00:00 31.2 27 Sudoeste 37 Sudoeste 0 1013.9 -0.8 52
2019-08-03 15:00:00 31.4 25 Sudoeste 33 Oeste 0 1014.3 -0.3 50
2019-08-03 14:00:00 31.8 22 Sudoeste 35 Sudoeste 0 1014.5 -0.1 43
2019-08-03 13:00:00 31.6 27 Sudoeste 35 Sudoeste 0 1014.7 -0.2 42
2019-08-03 12:00:00 33.6 10 Este 21 Este 0 1014.6 -0.1 30
2019-08-03 11:00:00 32 10 Este 22 Este 0 1014.6 0.3 34
2019-08-03 10:00:00 30.1 13 Este 18 Este 0 1014.9 0.8 37
2019-08-03 09:00:00 26.4 5 Este 9 Este 0 1014.7 0.6 47
2019-08-03 08:00:00 21 0 Calma 8 Nordeste 0 1014.3 0.1 71
2019-08-03 07:00:00 18.6 6 Este 8 Este 0 1014.1 0 80
2019-08-03 06:00:00 19.6 3 Norte 11 Norte 0 1014.1 -0.4 75
2019-08-03 05:00:00 20.2 9 Nordeste 11 Nordeste 0 1014.2 -0.5 76
2019-08-03 04:00:00 19.6 4 Este 8 Este 0 1014.1 -0.8 79
2019-08-03 03:00:00 20.8 5 Nordeste 8 Norte 0 1014.5 -0.3 76
2019-08-03 02:00:00 21.4 4 Nordeste -- -- 0 1014.7 0.3 77
2019-08-03 01:00:00 -- -- -- -- -- 0 1014.9 1.2 --
2019-08-03 00:00:00 24.3 4 Este 11 Nordeste 0 1014.8 1.6 64
2019-08-02 23:00:00 25.2 11 Este 22 Este 0 1014.4 1.7 62
2019-08-02 22:00:00 26.5 17 Este 26 Este 0 1013.7 1.1 51
2019-08-02 21:00:00 28 21 Este 30 Este 0 1013.2 0.2 42
2019-08-02 20:00:00 30 21 Este 28 Este 0 1012.7 -0.7 39
2019-08-02 19:00:00 31 12 Sudoeste 22 Sudoeste 0 1012.6 -1.3 39
2019-08-02 18:00:00 30.8 14 Sudoeste 30 Sudoeste 0 1013 -1.1 46
2019-08-02 17:00:00 30.5 19 Sudoeste 33 Sudoeste 0 1013.4 -0.4 51
2019-08-02 16:00:00 30.4 25 Sudoeste 37 Sudoeste 0 1013.9 0.4 54
2019-08-02 15:00:00 31 27 Sudoeste 35 Sudoeste 0 1014.1 0.7 51
2019-08-02 14:00:00 32.7 20 Este 39 Este 0 1013.8 1.2 34
2019-08-02 13:00:00 32.3 22 Este 39 Este 0 1013.5 1.1 32
2019-08-02 12:00:00 31.9 28 Este 41 Este 0 1013.4 1.1 36
2019-08-02 11:00:00 30.5 31 Nordeste 39 Nordeste 0 1012.6 1.1 37
2019-08-02 10:00:00 29.3 29 Este 42 Este 0 1012.4 1.2 41
2019-08-02 09:00:00 27.6 23 Nordeste 33 Nordeste 0 1012.3 1.2 44
2019-08-02 08:00:00 25.9 19 Nordeste 30 Este 0 1011.5 0 53
2019-08-02 07:00:00 24.3 8 Nordeste 26 Nordeste 0 1011.2 -0.5 88
2019-08-02 06:00:00 24.1 8 Norte 13 Nordeste 0 1011.1 -0.2 95
2019-08-02 05:00:00 24.5 8 Nordeste 11 Nordeste 0 1011.5 -0.6 93
2019-08-02 04:00:00 24.8 9 Este 13 Este 0 1011.7 -0.4 89
2019-08-02 03:00:00 24.7 9 Nordeste 13 Norte 0 1011.3 0.3 88
2019-08-02 02:00:00 25 4 Este 9 Norte 0 1012.1 1.8 87
2019-08-02 01:00:00 25.7 5 Este 15 Este 0 1012.1 1.7 83
2019-08-02 00:00:00 26 13 Este 17 Este 0 1011 0.9 82
2019-08-01 23:00:00 26.3 10 Este 15 Este 0 1010.3 1.5 78
2019-08-01 22:00:00 26.8 10 Nordeste 24 Nordeste 0 1010.4 0.4 74
2019-08-01 21:00:00 27.7 18 Este 33 Este 0 1010.1 0.1 68
2019-08-01 20:00:00 29 18 Nordeste 45 Este 0 1008.8 -1.3 64
2019-08-01 19:00:00 30.1 11 Sudeste 21 Sudoeste 0 1010 -0.1 55
2019-08-01 18:00:00 29.4 13 Sudoeste 30 Sudoeste 0 1010 -0.6 58
2019-08-01 17:00:00 29.7 15 Sudoeste 32 Sudoeste 0 1010.1 -0.2 57
2019-08-01 16:00:00 32.1 21 Sudoeste 35 Sudoeste 0 1010.1 -0.4 51
2019-08-01 15:00:00 32.6 26 Sudoeste 41 Sudoeste 0 1010.6 -1 50
2019-08-01 14:00:00 34.6 23 Sudoeste 32 Sur 0 1010.3 -0.8 44
2019-08-01 13:00:00 35 4 Este 21 Nordeste 0 1010.5 -0.3 38
2019-08-01 12:00:00 33.1 6 Sudeste 32 Este 0 1011.6 0 42
2019-08-01 11:00:00 31.4 20 Este 35 Este 0 1011.1 0.2 45
2019-08-01 10:00:00 28.9 21 Este 30 Este 0 1010.8 -0.5 53
2019-08-01 09:00:00 27 17 Este 30 Este 0 1011.6 0 64
2019-08-01 08:00:00 25.5 12 Nordeste 28 Este 0 1010.9 -0.5 69
2019-08-01 07:00:00 24.4 16 Este 30 Nordeste 0 1011.3 -0.7 75
2019-08-01 06:00:00 24.4 17 Nordeste 39 Nordeste 0 1011.6 -1.8 73
2019-08-01 05:00:00 24.3 27 Este 39 Nordeste 0 1011.4 -2.8 73
2019-08-01 04:00:00 24.7 24 Nordeste 45 Nordeste 0 1012 -2.2 67
2019-08-01 03:00:00 24.1 16 Nordeste 28 Este 0 1013.4 -0.9 70
2019-08-01 02:00:00 24 14 Este 24 Este 0 1014.2 0.8 70
2019-08-01 01:00:00 24.1 14 Nordeste 28 Nordeste 0 1014.2 -0.2 70
2019-08-01 00:00:00 24.3 20 Nordeste 42 Este 0 1014.3 0 69
2019-07-31 23:00:00 24.4 35 Este 45 Nordeste 0 1013.4 0.1 68
2019-07-31 22:00:00 25 18 Nordeste 32 Nordeste 0 1014.4 0.6 64
2019-07-31 21:00:00 25.7 22 Nordeste 39 Nordeste 0 1014.3 -0.4 59
2019-07-31 20:00:00 27 30 Este 42 Nordeste 0 1013.3 -1.4 52
2019-07-31 19:00:00 28.1 29 Este 39 Este 0 1013.8 -1.6 47
2019-07-31 18:00:00 29.2 27 Nordeste 41 Nordeste 0 1014.7 -0.4 44
2019-07-31 17:00:00 29.5 29 Nordeste 46 Nordeste 0 1014.7 -0.4 44
2019-07-31 16:00:00 29.1 27 Nordeste 42 Nordeste 0 1015.4 -1.8 46
2019-07-31 15:00:00 29.7 36 Nordeste 52 Este 0 1015.1 -1.9 45
2019-07-31 14:00:00 28.9 39 Nordeste 52 Nordeste 0 1015.1 -1 48
2019-07-31 13:00:00 27.5 26 Este 45 Este 0 1017.2 0.9 47
2019-07-31 12:00:00 27.3 33 Nordeste 58 Este 0 1017 0.4 48
2019-07-31 11:00:00 28.3 42 Este 58 Nordeste 0 1016.1 0.1 48
2019-07-31 10:00:00 27.3 37 Este 50 Este 0 1016.3 0.4 54
2019-07-31 09:00:00 26.1 35 Este 50 Este 0 1016.6 0.7 62
2019-07-31 08:00:00 24.8 21 Nordeste 32 Nordeste 0 1016 0.5 67
2019-07-31 07:00:00 23.7 22 Este 35 Este 0 1015.9 0.7 72
2019-07-31 06:00:00 23.7 13 Nordeste 26 Nordeste 0 1015.9 0.5 72
2019-07-31 05:00:00 23.9 14 Nordeste 22 Nordeste 0 1015.5 0 72
2019-07-31 04:00:00 23.9 12 Nordeste 26 Este 0 1015.2 -0.3 74
2019-07-31 03:00:00 24 13 Nordeste 26 Este 0 1015.4 0 73
2019-07-31 02:00:00 24.4 14 Este 22 Este 0 1015.5 0.3 76
2019-07-31 01:00:00 24.6 14 Nordeste 21 Nordeste 0 1015.5 1 80
2019-07-31 00:00:00 25.2 14 Este 18 Este 0 1015.4 1.4 78
2019-07-30 23:00:00 26.1 14 Este 26 Este 0 1015.2 1.4 76
2019-07-30 22:00:00 26.3 8 Norte 11 Norte 0 1014.5 1.1 72
2019-07-30 21:00:00 27.2 6 Oeste 22 Sudoeste 0 1014 0.6 71
2019-07-30 20:00:00 27.9 16 Sudoeste 26 Sudoeste 0 1013.8 0.4 67
2019-07-30 19:00:00 28.8 15 Sudoeste 24 Sudoeste 0 1013.4 -0.1 63
2019-07-30 18:00:00 29.7 14 Sudoeste 32 Sudoeste 0 1013.4 -0.3 58
2019-07-30 17:00:00 30.2 19 Sudoeste 32 Sudoeste 0 1013.4 -0.4 56
2019-07-30 16:00:00 30.3 22 Sudoeste 39 Sudoeste 0 1013.5 -0.4 55
2019-07-30 15:00:00 30.4 28 Sudoeste 41 Sudoeste 0 1013.7 -0.1 56
2019-07-30 14:00:00 30.6 30 Sudoeste 37 Sudoeste 0 1013.8 0.1 55
2019-07-30 13:00:00 30.2 27 Sudoeste 37 Sudoeste 0 1013.9 0.1 58
2019-07-30 12:00:00 31.1 22 Sudoeste 32 Sudoeste 0 1013.8 0.2 51
2019-07-30 11:00:00 31.9 7 Sudeste 17 Este 0 1013.7 0.5 37
2019-07-30 10:00:00 28.9 9 Este 15 Este 0 1013.8 1.1 58
2019-07-30 09:00:00 26.1 6 Norte 9 Norte 0 1013.6 1.5 71
2019-07-30 08:00:00 22.3 5 Norte -- -- 0 1013.2 1.3 82
2019-07-30 07:00:00 20.3 5 Nordeste 9 Este 0 1012.7 0.9 94
2019-07-30 06:00:00 20.1 5 Norte 8 Noroeste 0 1012.1 0.3 86
2019-07-30 05:00:00 20.4 6 Nordeste 9 Este 0 1011.9 0.1 93
2019-07-30 04:00:00 20.6 -- -- -- -- 0 1011.8 -0.1 86
2019-07-30 03:00:00 21.3 5 Este -- -- 0 1011.8 -0.1 80
2019-07-30 02:00:00 22.1 6 Nordeste 15 Sudoeste 0 1011.8 0.2 81
2019-07-30 01:00:00 24.7 10 Oeste 13 Oeste 0 1011.9 0.9 78
2019-07-30 00:00:00 25.2 10 Sudoeste 15 Sudoeste 0 1011.9 1.4 74
2019-07-29 23:00:00 25.3 6 Sudoeste 15 Sudoeste 0 1011.6 1.4 71
2019-07-29 22:00:00 26.3 10 Sudoeste 18 Sudoeste 0 1011 0.9 68
2019-07-29 21:00:00 26.7 12 Sudoeste 26 Sudoeste 0 1010.5 0 67
2019-07-29 20:00:00 27.8 17 Sudoeste 30 Sur 0 1010.2 -0.7 61
2019-07-29 19:00:00 28.5 22 Sudoeste 35 Sudoeste 0 1010.1 -1 60
2019-07-29 18:00:00 28.7 24 Sudoeste 35 Sudoeste 0 1010.5 -0.5 59
2019-07-29 17:00:00 29.1 25 Sudoeste 37 Sudoeste 0 1010.9 -0.2 55
2019-07-29 16:00:00 29.5 26 Sudoeste 45 Sudoeste 0 1011.1 -0.3 50
2019-07-29 15:00:00 30 24 Sudoeste 35 Sudoeste 0 1011 -0.6 49
2019-07-29 14:00:00 30 17 Sudoeste 33 Sudoeste 0 1011.1 -0.5 47
2019-07-29 13:00:00 29 23 Sudoeste 35 Sudoeste 0 1011.4 0 54
2019-07-29 12:00:00 28.4 17 Sudoeste 30 Sudoeste 0 1011.6 0.3 59
2019-07-29 11:00:00 27.9 21 Sudoeste 28 Sudoeste 0 1011.6 0.9 61
2019-07-29 10:00:00 26.9 15 Sudoeste 22 Sudoeste 0 1011.4 1 65
2019-07-29 09:00:00 24.9 3 Este 8 Nordeste 0 1011.3 1.1 62
2019-07-29 08:00:00 20.5 6 Nordeste 9 Este 0 1010.7 0.4 71
2019-07-29 07:00:00 17.1 5 Norte 8 Norte 0 1010.4 -0.1 77
2019-07-29 06:00:00 17.1 5 Norte -- -- 0 1010.2 -0.3 78
2019-07-29 05:00:00 17.7 5 Este 8 Este 0 1010.3 -0.4 79
2019-07-29 04:00:00 18.1 5 Nordeste -- -- 0 1010.5 -0.2 78
2019-07-29 03:00:00 18.5 5 Nordeste -- -- 0 1010.5 -0.2 77
2019-07-29 02:00:00 19.7 5 Nordeste 9 Este 0 1010.7 0.1 73
2019-07-29 01:00:00 21.4 6 Este 9 Este 0 1010.7 0.7 67
2019-07-29 00:00:00 22.5 5 Noroeste 11 Noroeste 0 1010.7 1.4 64
2019-07-28 23:00:00 23.2 9 Noroeste 26 Oeste 0 1010.6 1.7 61
2019-07-28 22:00:00 25.4 18 Oeste 37 Oeste 0 1010 1.8 53
2019-07-28 21:00:00 25.8 31 Sudoeste 41 Sudoeste 0 1009.3 1.1 56
2019-07-28 20:00:00 27.6 32 Sudoeste 45 Sudoeste 0 1008.9 0.5 46
2019-07-28 19:00:00 29.4 35 Sudoeste 42 Sudoeste 0 1008.2 -0.5 35
2019-07-28 18:00:00 30.1 34 Oeste 48 Oeste 0 1008.2 -0.4 30
2019-07-28 17:00:00 30.7 38 Sudoeste 46 Sudoeste 0 1008.4 -0.3 29
2019-07-28 16:00:00 30.8 28 Sudoeste 41 Sudoeste 0 1008.7 0 36
2019-07-28 15:00:00 30.4 31 Sudoeste 42 Sudoeste 0 1008.6 -0.2 42
2019-07-28 14:00:00 30.4 21 Oeste 35 Sudoeste 0 1008.7 -0.2 42
2019-07-28 13:00:00 30.2 19 Sudoeste 32 Sudoeste 0 1008.7 0.1 44
2019-07-28 12:00:00 29.6 7 Noroeste 24 Norte 0 1008.8 0.9 40
2019-07-28 11:00:00 28.1 11 Oeste 22 Oeste 0 1008.9 1.6 48
2019-07-28 10:00:00 26.3 5 Nordeste 13 Norte 0 1008.6 2 51
2019-07-28 09:00:00 25.8 8 Este 21 Norte 0 1007.9 1.5 53
2019-07-28 08:00:00 24.6 9 Norte 21 Norte 0 1007.3 1.8 56
2019-07-28 07:00:00 22.7 9 Noroeste 21 Oeste 0 1006.6 1.1 61
2019-07-28 06:00:00 23.8 13 Noroeste 22 Noroeste 0 1006.4 1 56
2019-07-28 05:00:00 24.4 13 Noroeste 24 Norte 0 1005.5 0.1 55
2019-07-28 04:00:00 25.2 11 Norte 33 Noroeste 0 1005.5 0.3 52
2019-07-28 03:00:00 26.1 10 Noroeste 24 Noroeste 0 1005.4 0.5 52
2019-07-28 02:00:00 26.4 8 Noroeste 26 Noroeste 0 1005.4 0.7 56
2019-07-28 01:00:00 25.8 5 Oeste 13 Noroeste 0 1005.2 1.2 55
2019-07-28 00:00:00 26.5 4 Nordeste 11 Sudoeste 0 1004.9 1.5 60
2019-07-27 23:00:00 27.2 6 Sudoeste 28 Oeste 0 1004.7 2.2 61
2019-07-26 12:00:00 31.2 18 Sudoeste 26 Oeste 0 1010.3 -1.2 55
2019-07-26 11:00:00 32.7 18 Sudoeste 26 Sudoeste 0 1010.7 -0.7 35
2019-07-26 10:00:00 31.2 3 Norte 9 Norte 0 1011 -0.3 36
2019-07-26 09:00:00 27.5 5 Nordeste 9 Nordeste 0 1011.5 0.3 45
2019-07-26 08:00:00 23.6 3 Nordeste 9 Norte 0 1011.4 -0.3 57
2019-07-26 07:00:00 21 7 Norte 9 Norte 0 1011.3 -0.7 60
2019-07-26 06:00:00 20.3 5 Nordeste 8 Este 0 1011.2 -1.2 70
2019-07-26 05:00:00 21.2 3 Nordeste 5 Norte 0 1011.7 -1 71
2019-07-26 04:00:00 21.3 -- -- -- -- 0 1012 -1.1 74
2019-07-26 03:00:00 22.3 2 Noroeste 8 Nordeste 0 1012.4 -0.8 70
2019-07-26 02:00:00 23.7 3 Nordeste 5 Nordeste 0 1012.7 -0.7 63
2019-07-26 01:00:00 24.1 4 Este 9 Este 0 1013.1 0 66
2019-07-26 00:00:00 25.1 7 Norte 9 Norte 0 1013.2 0.7 70
2019-07-25 23:00:00 26.6 4 Este 9 Norte 0 1013.4 1.2 66
2019-07-25 22:00:00 27.8 4 Norte 21 Sudoeste 0 1013.1 1 65
2019-07-25 21:00:00 29.9 8 Sur 30 Oeste 0 1012.5 0.1 51
2019-07-25 20:00:00 30.2 22 Oeste 32 Oeste 0 1012.2 -0.8 63
2019-07-25 19:00:00 31.3 23 Oeste 33 Oeste 0 1012.1 -1.4 52
2019-07-25 18:00:00 32.1 22 Oeste 32 Oeste 0 1012.4 -1.3 47
2019-07-25 17:00:00 32.5 26 Sudoeste 35 Sudoeste 0 1013 -1 42
2019-07-25 16:00:00 32.5 30 Sudoeste 39 Sudoeste 0 1013.5 -0.4 46
2019-07-25 15:00:00 32.9 28 Sudoeste 39 Sudoeste 0 1013.7 -0.2 42
2019-07-25 14:00:00 31.7 29 Sudoeste 37 Oeste 0 1014 0 53
2019-07-25 13:00:00 32.6 26 Sudoeste 32 Sudoeste 0 1013.9 -0.2 49
2019-07-25 12:00:00 34.5 14 Sudoeste 24 Sudoeste 0 1013.9 -0.3 38
2019-07-25 11:00:00 32.7 12 Este 22 Este 0 1014 -0.4 45
2019-07-25 10:00:00 29.9 12 Nordeste 22 Nordeste 0 1014.1 0 57
2019-07-25 09:00:00 27.5 16 Este 21 Este 0 1014.2 0.4 67
2019-07-25 08:00:00 24.7 9 Este 18 Este 0 1014.4 0.5 82
2019-07-25 07:00:00 21.4 11 Este 15 Este 0 1014.1 -0.1 85
2019-07-25 06:00:00 21.4 7 Este 9 Este 0 1013.8 -0.6 84
2019-07-25 05:00:00 22.1 0 Calma 8 Este 0 1013.9 -0.8 81
2019-07-25 04:00:00 22.5 0 Calma 8 Nordeste 0 1014.2 -0.6 79
2019-07-25 03:00:00 23.2 5 Este 8 Este 0 1014.4 -0.5 73
2019-07-25 02:00:00 23.6 5 Norte 8 Este 0 1014.7 -0.1 72
2019-07-25 01:00:00 24.3 2 Este 9 Nordeste 0 1014.8 0.4 66
2019-07-25 00:00:00 25 6 Este 9 Este 0 1014.9 0.7 66
2019-07-24 23:00:00 26.6 6 Oeste 9 Norte 0 1014.8 0.9 72
2019-07-24 22:00:00 26.9 6 Norte 17 Oeste 0 1014.4 0.4 74
2019-07-24 21:00:00 28.4 12 Oeste 18 Oeste 0 1014.2 -0.1 63
2019-07-24 20:00:00 30 15 Sudoeste 26 Sudoeste 0 1013.9 -0.9 51
2019-07-24 19:00:00 31.1 19 Sudoeste 28 Sudoeste 0 1014 -0.9 37
2019-07-24 18:00:00 30.9 19 Sudoeste 32 Sudoeste 0 1014.3 -0.7 57
2019-07-24 17:00:00 30.9 26 Sudoeste 41 Sudoeste 0 1014.8 -0.2 61
2019-07-24 16:00:00 31.7 31 Sudoeste 41 Sudoeste 0 1014.9 -0.3 57
2019-07-24 15:00:00 33 28 Sudoeste 35 Sudoeste 0 1015 -0.2 35
2019-07-24 14:00:00 34.6 23 Sudoeste 30 Sudoeste 0 1015 -0.5 24
2019-07-24 13:00:00 34.2 21 Sudoeste 28 Sudoeste 0 1015.2 -0.4 28
2019-07-24 12:00:00 35.6 6 Noroeste 17 Sur 0 1015.2 -0.4 22
2019-07-24 11:00:00 34 4 Oeste 11 Oeste 0 1015.5 0 23
2019-07-24 10:00:00 31 5 Norte 9 Norte 0 1015.6 0.3 27
2019-07-24 09:00:00 27.1 4 Nordeste 9 Este 0 1015.6 0.3 52
2019-07-24 08:00:00 23.3 3 Norte 8 Nordeste 0 1015.5 0.4 72
2019-07-24 07:00:00 21 6 Nordeste 11 Norte 0 1015.3 0.1 76
2019-07-24 06:00:00 21.8 9 Norte 11 Norte 0 1015.3 -0.2 78
2019-07-24 05:00:00 22.3 6 Norte 9 Norte 0 1015.1 -0.8 76
2019-07-24 04:00:00 22.9 8 Norte 9 Norte 0 1015.2 -0.7 70
2019-07-24 03:00:00 23.2 7 Nordeste 11 Nordeste 0 1015.5 -0.3 73
2019-07-24 02:00:00 23.8 5 Norte 8 Norte 0 1015.9 0.2 65
2019-07-24 01:00:00 24 4 Norte 9 Este 0 1015.9 0.2 71
2019-07-24 00:00:00 25.3 6 Nordeste 9 Nordeste 0 1015.8 0.3 67